Time;durP1;ratioP1;P1;durP2;ratioP2;P2;SDS_P1;SDS_P2;PMS_P1;PMS_P2;Temp;Humidity;BMP_temperature;BMP_pressure;BME280_temperature;BME280_humidity;BME280_pressure;Samples;Min_cycle;Max_cycle;Signal;HPM_P1;HPM_P2
2023/10/17 00:00:27;;;;;;;5.93;1.40;;;;;;;6.40;nan;101098.78;2066670;28;20245;-75
2023/10/17 00:01:23;;;;;;;1.95;1.00;;;;;;;6.38;nan;101090.22;2079907;28;20229;-74
2023/10/17 00:02:26;;;;;;;4.45;0.98;;;;;;;6.39;nan;101091.84;2090155;28;20193;-74
2023/10/17 00:03:28;;;;;;;2.03;1.10;;;;;;;6.41;nan;101095.09;2072414;28;20378;-74
2023/10/17 00:04:33;;;;;;;2.08;1.10;;;;;;;6.42;nan;101094.03;2082415;28;20241;-74
2023/10/17 00:05:34;;;;;;;3.85;1.05;;;;;;;6.40;nan;101093.44;2081818;28;21016;-74
2023/10/17 00:06:37;;;;;;;5.38;1.40;;;;;;;6.38;nan;101093.69;2081892;28;20198;-79
2023/10/17 00:07:44;;;;;;;3.15;1.23;;;;;;;6.37;nan;101092.09;2074009;28;21137;-74
2023/10/17 00:08:50;;;;;;;2.33;0.93;;;;;;;6.38;nan;101095.56;2082497;28;20202;-74
2023/10/17 00:09:55;;;;;;;4.97;1.30;;;;;;;6.35;nan;101091.50;2082665;28;20198;-74
2023/10/17 00:10:57;;;;;;;7.97;1.30;;;;;;;6.30;nan;101083.38;2072759;28;20305;-74
2023/10/17 00:12:03;;;;;;;3.78;1.23;;;;;;;6.33;nan;101096.25;2073270;28;20194;-74
2023/10/17 00:13:23;;;;;;;3.47;1.27;;;;;;;6.32;nan;101085.81;2082056;28;20316;-74
2023/10/17 00:14:44;;;;;;;3.05;1.20;;;;;;;6.31;nan;101089.56;2084439;28;20499;-74
2023/10/17 00:15:46;;;;;;;4.32;1.20;;;;;;;6.29;nan;101079.09;2068536;28;20207;-74
2023/10/17 00:16:49;;;;;;;1.98;1.15;;;;;;;6.33;nan;101093.59;2065484;28;20353;-75
2023/10/17 00:17:51;;;;;;;3.15;1.05;;;;;;;6.33;nan;101087.44;2073702;28;20214;-75
2023/10/17 00:18:54;;;;;;;4.28;1.17;;;;;;;6.30;nan;101078.03;2070116;28;20246;-75
2023/10/17 00:20:16;;;;;;;4.63;1.20;;;;;;;6.32;nan;101091.16;2091175;28;20240;-75
2023/10/17 00:21:25;;;;;;;3.60;1.17;;;;;;;6.28;nan;101084.69;2098122;28;20234;-74
2023/10/17 00:22:42;;;;;;;5.68;1.38;;;;;;;6.33;nan;101082.09;2098216;28;21099;-74
2023/10/17 00:23:44;;;;;;;5.95;1.50;;;;;;;6.31;nan;101085.03;2098519;28;20314;-74
2023/10/17 00:24:51;;;;;;;5.13;1.35;;;;;;;6.28;nan;101095.38;2081929;28;20221;-75
2023/10/17 00:25:53;;;;;;;6.32;1.15;;;;;;;6.27;nan;101089.19;2067114;28;20235;-74
2023/10/17 00:26:54;;;;;;;5.65;1.08;;;;;;;6.27;nan;101089.19;2065671;28;20325;-74
2023/10/17 00:27:58;;;;;;;3.20;1.00;;;;;;;6.29;nan;101086.31;2090399;28;20210;-74
2023/10/17 00:29:04;;;;;;;4.38;1.50;;;;;;;6.29;nan;101087.09;2097879;28;20319;-75
2023/10/17 00:30:16;;;;;;;4.00;1.13;;;;;;;6.29;nan;101089.78;2073991;28;20229;-74
2023/10/17 00:31:21;;;;;;;5.72;1.27;;;;;;;6.27;nan;101083.84;2070280;28;20274;-74
2023/10/17 00:32:24;;;;;;;3.20;1.05;;;;;;;6.31;nan;101089.56;2067065;28;20305;-74
2023/10/17 00:33:28;;;;;;;4.70;1.30;;;;;;;6.31;nan;101095.69;2072807;28;20938;-75
2023/10/17 00:34:30;;;;;;;4.40;1.23;;;;;;;6.29;nan;101084.44;2066155;28;21156;-75
2023/10/17 00:35:38;;;;;;;3.40;1.05;;;;;;;6.25;nan;101086.78;2081461;28;21114;-74
2023/10/17 00:36:47;;;;;;;4.80;1.20;;;;;;;6.25;nan;101088.63;2099547;28;20209;-74
2023/10/17 00:37:56;;;;;;;5.55;1.10;;;;;;;6.25;nan;101092.13;2089802;28;20217;-75
2023/10/17 00:39:11;;;;;;;2.97;1.00;;;;;;;6.19;nan;101087.72;2092888;28;20025;-74
2023/10/17 00:40:26;;;;;;;2.25;0.90;;;;;;;6.19;nan;101092.25;2081274;28;20238;-74
2023/10/17 00:41:47;;;;;;;4.03;0.93;;;;;;;6.20;nan;101094.66;2063168;28;20228;-75
2023/10/17 00:42:49;;;;;;;5.43;1.08;;;;;;;6.21;nan;101090.13;2081964;28;21177;-75
2023/10/17 00:43:53;;;;;;;3.20;0.95;;;;;;;6.21;nan;101085.63;2089762;28;20205;-75
2023/10/17 00:44:58;;;;;;;2.90;1.13;;;;;;;6.21;nan;101085.63;2090657;28;20232;-75
2023/10/17 00:45:59;;;;;;;3.47;1.13;;;;;;;6.23;nan;101094.19;2089705;28;20261;-75
2023/10/17 00:47:19;;;;;;;3.33;1.00;;;;;;;6.20;nan;101089.31;2090089;28;20304;-75
2023/10/17 00:48:25;;;;;;;6.95;3.67;;;;;;;6.20;nan;101088.53;2100878;28;20201;-74
2023/10/17 00:49:37;;;;;;;4.72;0.90;;;;;;;6.20;nan;101089.31;2096876;28;20760;-74
2023/10/17 00:50:43;;;;;;;4.05;1.10;;;;;;;6.23;nan;101088.84;2090736;28;20316;-74
2023/10/17 00:51:45;;;;;;;3.00;0.98;;;;;;;6.23;nan;101085.38;2098545;28;20200;-74
2023/10/17 00:52:49;;;;;;;4.47;1.08;;;;;;;6.26;nan;101087.56;2097849;28;20200;-74
2023/10/17 00:53:51;;;;;;;1.42;0.73;;;;;;;6.26;nan;101091.06;2098197;28;20232;-74
2023/10/17 00:54:54;;;;;;;5.53;1.15;;;;;;;6.23;nan;101088.84;2098006;28;20343;-74
2023/10/17 00:55:56;;;;;;;2.55;1.10;;;;;;;6.24;nan;101079.81;2089328;28;20224;-74
2023/10/17 00:57:05;;;;;;;1.95;0.90;;;;;;;6.22;nan;101083.75;2082496;28;21129;-74
2023/10/17 00:58:11;;;;;;;3.38;1.13;;;;;;;6.19;nan;101093.06;2083974;28;20249;-74
2023/10/17 00:59:13;;;;;;;3.75;0.90;;;;;;;6.16;nan;101101.53;2083742;28;20042;-74
2023/10/17 01:00:39;;;;;;;4.78;1.08;;;;;;;6.17;nan;101087.13;2088471;28;20208;-74
2023/10/17 01:01:42;;;;;;;2.42;1.00;;;;;;;6.18;nan;101091.44;2082315;28;21155;-74
2023/10/17 01:02:46;;;;;;;2.67;0.70;;;;;;;6.21;nan;101096.31;2066565;28;20259;-74
2023/10/17 01:03:54;;;;;;;4.53;1.15;;;;;;;6.23;nan;101096.88;2075879;28;20226;-74
2023/10/17 01:04:59;;;;;;;2.85;1.00;;;;;;;6.26;nan;101099.06;2092356;28;20358;-75
2023/10/17 01:06:41;;;;;;;2.55;0.90;;;;;;;6.31;nan;101089.56;2100190;28;20240;-74
2023/10/17 01:07:41;;;;;;;5.38;0.93;;;;;;;6.34;nan;101094.44;2098768;28;20259;-74
2023/10/17 01:08:49;;;;;;;2.88;1.17;;;;;;;6.34;nan;101089.88;2083043;28;20209;-74
2023/10/17 01:09:55;;;;;;;1.50;0.80;;;;;;;6.32;nan;101091.97;2084918;28;20330;-74
2023/10/17 01:10:57;;;;;;;3.55;0.95;;;;;;;6.33;nan;101092.78;2075231;28;20238;-75
2023/10/17 01:11:59;;;;;;;1.70;0.73;;;;;;;6.29;nan;101091.63;2075085;28;20380;-74
2023/10/17 01:13:08;;;;;;;1.15;0.70;;;;;;;6.29;nan;101092.44;2084079;28;20230;-74
2023/10/17 01:14:21;;;;;;;1.45;0.80;;;;;;;6.31;nan;101089.56;2101143;28;20096;-74
2023/10/17 01:15:28;;;;;;;3.25;1.00;;;;;;;6.30;nan;101090.59;2083033;28;20295;-74
2023/10/17 01:16:53;;;;;;;2.58;1.15;;;;;;;6.29;nan;101086.31;2089545;28;20256;-74
2023/10/17 01:18:05;;;;;;;2.25;0.77;;;;;;;6.32;nan;101091.16;2091175;28;21071;-74
2023/10/17 01:19:11;;;;;;;3.28;1.20;;;;;;;6.33;nan;101087.44;2073994;28;20262;-74
2023/10/17 01:20:18;;;;;;;2.83;1.10;;;;;;;6.34;nan;101091.75;2075522;28;20250;-74
2023/10/17 01:21:21;;;;;;;0.98;0.65;;;;;;;6.31;nan;101090.34;2075456;28;20213;-74
2023/10/17 01:22:24;;;;;;;2.58;0.88;;;;;;;6.29;nan;101084.44;2083301;28;20213;-74
2023/10/17 01:23:29;;;;;;;3.13;0.90;;;;;;;6.26;nan;101088.38;2082849;28;21173;-74
2023/10/17 01:24:34;;;;;;;2.83;0.93;;;;;;;6.25;nan;101086.78;2082957;28;20238;-74
2023/10/17 01:25:41;;;;;;;2.10;1.00;;;;;;;6.25;nan;101086.78;2067527;28;20215;-74
2023/10/17 01:26:46;;;;;;;4.53;1.20;;;;;;;6.27;nan;101089.19;2068570;28;20226;-74
2023/10/17 01:27:50;;;;;;;2.47;0.80;;;;;;;6.25;nan;101084.09;2075594;28;20145;-74
2023/10/17 01:28:53;;;;;;;2.17;0.80;;;;;;;6.25;nan;101086.78;2066926;28;20200;-74
2023/10/17 01:29:56;;;;;;;2.45;1.13;;;;;;;6.25;nan;101092.13;2067496;28;20246;-74
2023/10/17 01:31:01;;;;;;;2.33;0.70;;;;;;;6.25;nan;101089.44;2091220;28;20216;-74
2023/10/17 01:32:09;;;;;;;2.05;0.88;;;;;;;6.24;nan;101082.50;2086710;28;20244;-74
2023/10/17 01:33:13;;;;;;;2.17;0.88;;;;;;;6.24;nan;101093.16;2084801;28;21232;-75
2023/10/17 01:34:15;;;;;;;3.95;1.05;;;;;;;6.24;nan;101095.84;2087832;28;20442;-75
2023/10/17 01:35:19;;;;;;;3.85;0.77;;;;;;;6.26;nan;101101.75;2074469;28;20242;-75
2023/10/17 01:36:24;;;;;;;5.75;1.27;;;;;;;6.25;nan;101092.13;2067011;28;21184;-75
2023/10/17 01:37:27;;;;;;;3.55;1.02;;;;;;;6.29;nan;101096.97;2068288;28;20251;-75
2023/10/17 01:38:29;;;;;;;2.53;0.75;;;;;;;6.31;nan;101101.03;2082831;28;20317;-74
2023/10/17 01:39:40;;;;;;;36.15;1.45;;;;;;;6.30;nan;101090.59;2092236;28;20201;-75
2023/10/17 01:40:41;;;;;;;3.30;1.10;;;;;;;6.29;nan;101092.44;2083197;28;20261;-75
2023/10/17 01:41:47;;;;;;;3.30;0.90;;;;;;;6.30;nan;101094.06;2074721;28;20276;-74
2023/10/17 01:42:51;;;;;;;4.32;1.05;;;;;;;6.31;nan;101089.56;2075677;28;20251;-75
2023/10/17 01:43:53;;;;;;;0.95;0.77;;;;;;;6.32;nan;101093.84;2083484;28;20230;-75
2023/10/17 01:44:54;;;;;;;2.63;0.90;;;;;;;6.33;nan;101092.78;2082801;28;20341;-75
2023/10/17 01:45:57;;;;;;;2.42;1.02;;;;;;;6.32;nan;101096.50;2075319;28;20199;-75
2023/10/17 01:46:59;;;;;;;2.97;1.10;;;;;;;6.32;nan;101085.81;2074966;28;20226;-75
2023/10/17 01:48:01;;;;;;;2.38;0.88;;;;;;;6.31;nan;101094.91;2082714;28;21047;-75
2023/10/17 01:49:10;;;;;;;2.88;0.73;;;;;;;6.33;nan;101096.25;2082451;28;21114;-75
2023/10/17 01:50:12;;;;;;;3.27;0.80;;;;;;;6.35;nan;101090.69;2084255;28;20284;-75
2023/10/17 01:51:13;;;;;;;3.22;0.90;;;;;;;6.31;nan;101092.22;2082718;28;20249;-74
2023/10/17 01:52:18;;;;;;;3.08;0.77;;;;;;;6.29;nan;101087.09;2083106;28;21099;-75
2023/10/17 01:53:22;;;;;;;2.67;0.80;;;;;;;6.25;nan;101094.78;2091480;28;20393;-74
2023/10/17 01:54:23;;;;;;;2.53;0.77;;;;;;;6.25;nan;101093.97;2090846;28;20218;-75
2023/10/17 01:55:27;;;;;;;2.47;0.77;;;;;;;6.24;nan;101090.50;2073776;28;20217;-75
2023/10/17 01:56:30;;;;;;;3.28;0.90;;;;;;;6.26;nan;101090.25;2083054;28;20210;-75
2023/10/17 01:57:34;;;;;;;2.15;1.05;;;;;;;6.27;nan;101094.53;2082202;28;20201;-75
2023/10/17 01:58:37;;;;;;;1.20;0.68;;;;;;;6.23;nan;101086.19;2074370;28;20243;-74
2023/10/17 01:59:39;;;;;;;3.30;0.80;;;;;;;6.22;nan;101089.91;2074425;28;20313;-74
2023/10/17 02:00:43;;;;;;;1.63;1.05;;;;;;;6.22;nan;101087.25;2066564;28;20254;-74
2023/10/17 02:01:44;;;;;;;3.25;1.02;;;;;;;6.23;nan;101088.84;2075763;28;20111;-74
2023/10/17 02:02:48;;;;;;;1.58;0.70;;;;;;;6.25;nan;101085.97;2091768;28;20311;-75
2023/10/17 02:04:02;;;;;;;2.90;0.80;;;;;;;6.29;nan;101081.75;2090731;28;20344;-75
2023/10/17 02:05:07;;;;;;;3.85;1.00;;;;;;;6.31;nan;101085.03;2076514;28;20380;-75
2023/10/17 02:06:14;;;;;;;3.35;1.17;;;;;;;6.32;nan;101085.81;2083280;28;20300;-74
2023/10/17 02:07:16;;;;;;;1.80;0.73;;;;;;;6.33;nan;101087.44;2082932;28;20319;-75
2023/10/17 02:08:21;;;;;;;4.70;0.75;;;;;;;6.32;nan;101085.81;2090886;28;20356;-74
2023/10/17 02:09:24;;;;;;;1.00;0.70;;;;;;;6.32;nan;101083.97;2098865;28;21087;-74
2023/10/17 02:10:28;;;;;;;2.45;1.00;;;;;;;6.33;nan;101087.44;2082724;28;20210;-74
2023/10/17 02:11:43;;;;;;;3.00;0.80;;;;;;;6.33;nan;101092.78;2083049;28;20339;-74
2023/10/17 02:12:48;;;;;;;3.08;1.08;;;;;;;6.31;nan;101092.22;2092768;28;20300;-74
2023/10/17 02:13:57;;;;;;;3.85;0.88;;;;;;;6.33;nan;101092.78;2099263;28;21065;-74
2023/10/17 02:15:00;;;;;;;2.83;0.90;;;;;;;6.36;nan;101092.31;2083645;28;20217;-74
2023/10/17 02:16:02;;;;;;;2.67;0.90;;;;;;;6.36;nan;101092.31;2082857;28;20324;-74
2023/10/17 02:17:04;;;;;;;3.85;1.02;;;;;;;6.35;nan;101096.03;2082271;28;20250;-73
2023/10/17 02:18:12;;;;;;;3.85;0.98;;;;;;;6.35;nan;101091.50;2058161;28;20243;-74
2023/10/17 02:19:15;;;;;;;2.92;0.90;;;;;;;6.33;nan;101098.13;2082650;28;21062;-75
2023/10/17 02:20:29;;;;;;;2.90;0.88;;;;;;;6.32;nan;101094.66;2089220;28;20241;-75
2023/10/17 02:21:32;;;;;;;1.35;0.70;;;;;;;6.30;nan;101099.41;2090656;28;20347;-75
2023/10/17 02:22:44;;;;;;;2.85;1.20;;;;;;;6.30;nan;101087.91;2082813;28;21049;-75
2023/10/17 02:23:51;;;;;;;4.28;0.70;;;;;;;6.33;nan;101103.47;2085667;28;20218;-74
2023/10/17 02:24:57;;;;;;;3.45;1.10;;;;;;;6.32;nan;101100.00;2083200;28;21032;-74
2023/10/17 02:26:00;;;;;;;3.15;0.93;;;;;;;6.31;nan;101105.56;2092263;28;20201;-75
2023/10/17 02:27:06;;;;;;;2.40;0.88;;;;;;;6.29;nan;101094.31;2098449;28;20197;-74
2023/10/17 02:28:09;;;;;;;2.70;0.80;;;;;;;6.24;nan;101098.50;2091077;28;20294;-74
2023/10/17 02:29:11;;;;;;;3.28;1.00;;;;;;;6.21;nan;101103.47;2090473;28;20197;-74
2023/10/17 02:30:14;;;;;;;1.88;0.80;;;;;;;6.10;nan;101075.78;2098864;28;20214;-74
2023/10/17 02:31:32;;;;;;;2.67;0.80;;;;;;;6.23;nan;101098.72;2100255;28;20244;-74
2023/10/17 02:32:35;;;;;;;4.03;1.13;;;;;;;6.20;nan;101105.34;2098288;28;20971;-74
2023/10/17 02:33:41;;;;;;;1.85;0.70;;;;;;;6.16;nan;101104.19;2074366;28;20206;-74
2023/10/17 02:34:47;;;;;;;3.20;0.88;;;;;;;6.16;nan;101104.19;2074849;28;20201;-74
2023/10/17 02:36:06;;;;;;;2.28;0.80;;;;;;;6.17;nan;101105.00;2091017;28;20315;-74
2023/10/17 02:37:11;;;;;;;2.15;0.90;;;;;;;6.17;nan;101105.81;2090043;28;20406;-75
2023/10/17 02:38:15;;;;;;;3.35;0.80;;;;;;;6.16;nan;101106.88;2082195;28;20026;-74
2023/10/17 02:39:23;;;;;;;5.03;0.90;;;;;;;6.15;nan;101102.59;2074731;28;20266;-74
2023/10/17 02:40:24;;;;;;;2.78;1.00;;;;;;;6.11;nan;101095.28;2075090;28;21009;-74
2023/10/17 02:41:25;;;;;;;2.92;1.00;;;;;;;6.11;nan;101101.41;2073978;28;20330;-74
2023/10/17 02:42:31;;;;;;;2.53;1.17;;;;;;;6.11;nan;101104.09;2082585;28;20222;-74
2023/10/17 02:43:40;;;;;;;2.55;0.98;;;;;;;6.09;nan;101098.19;2075059;28;20305;-74
2023/10/17 02:44:45;;;;;;;2.95;0.70;;;;;;;6.08;nan;101099.22;2077100;28;20211;-74
2023/10/17 02:45:47;;;;;;;3.35;1.05;;;;;;;6.08;nan;101098.41;2082904;28;20287;-74
2023/10/17 02:46:51;;;;;;;3.63;1.38;;;;;;;6.09;nan;101103.53;2083001;28;20190;-73
2023/10/17 02:47:54;;;;;;;5.20;1.23;;;;;;;6.08;nan;101103.75;2081877;28;20253;-74
2023/10/17 02:48:56;;;;;;;1.50;0.90;;;;;;;6.09;nan;101106.19;2074560;28;20264;-74
2023/10/17 02:50:00;;;;;;;5.22;1.08;;;;;;;6.07;nan;101104.81;2069702;28;20289;-74
2023/10/17 02:51:03;;;;;;;3.78;0.70;;;;;;;6.06;nan;101103.19;2058912;28;20224;-75
2023/10/17 02:52:05;;;;;;;2.08;0.73;;;;;;;6.05;nan;101102.34;2066375;28;20393;-74
2023/10/17 02:53:12;;;;;;;2.80;1.17;;;;;;;6.06;nan;101104.00;2082474;28;20987;-74
2023/10/17 02:54:14;;;;;;;3.65;1.00;;;;;;;6.04;nan;101106.09;2082843;28;20209;-74
2023/10/17 02:55:23;;;;;;;3.85;1.10;;;;;;;6.05;nan;101113.03;2090365;28;20200;-74
2023/10/17 02:56:26;;;;;;;;;;;;;;;6.06;nan;101109.34;2074103;28;20262;-74
2023/10/17 02:57:32;;;;;;;4.03;1.00;;;;;;;6.07;nan;101110.16;2074476;28;20038;-75
2023/10/17 02:58:34;;;;;;;3.50;1.08;;;;;;;6.08;nan;101109.09;2075031;28;20203;-74
2023/10/17 02:59:36;;;;;;;3.55;0.90;;;;;;;6.06;nan;101113.88;2057673;28;20351;-74
2023/10/17 03:00:44;;;;;;;5.93;0.90;;;;;;;6.04;nan;101116.75;2066208;28;20330;-77
2023/10/17 03:01:52;;;;;;;2.55;1.02;;;;;;;6.03;nan;101120.47;2083082;28;20210;-77
2023/10/17 03:02:58;;;;;;;2.03;0.80;;;;;;;6.00;nan;101113.75;2082500;28;20216;-86
2023/10/17 03:04:23;;;;;;;1.35;0.70;;;;;;;5.97;nan;101121.41;2074557;28;20069;-74
2023/10/17 03:05:29;;;;;;;2.63;1.02;;;;;;;5.94;nan;101114.69;2086145;28;20259;-74
2023/10/17 03:06:33;;;;;;;1.95;1.00;;;;;;;5.92;nan;101123.94;2082748;28;20340;-75
2023/10/17 03:07:35;;;;;;;4.30;1.33;;;;;;;5.93;nan;101120.28;2066843;28;20257;-74
2023/10/17 03:08:41;;;;;;;2.88;1.10;;;;;;;5.94;nan;101124.56;2083360;28;20205;-74
2023/10/17 03:09:43;;;;;;;2.70;1.13;;;;;;;5.93;nan;101121.06;2098579;28;20240;-74
2023/10/17 03:10:47;;;;;;;3.63;1.25;;;;;;;5.95;nan;101112.81;2090315;28;20276;-74
2023/10/17 03:13:05;;;;;;;9.18;3.20;;;;;;;5.95;nan;101118.16;2092420;28;20240;-74
2023/10/17 03:15:30;;;;;;;3.20;1.20;;;;;;;5.97;nan;101121.41;2076292;28;20242;-74
2023/10/17 03:16:39;;;;;;;2.10;1.10;;;;;;;5.98;nan;101112.34;2088165;28;20295;-74
2023/10/17 03:17:42;;;;;;;1.92;0.98;;;;;;;5.99;nan;101119.31;2090951;28;20212;-74
2023/10/17 03:18:49;;;;;;;1.95;0.80;;;;;;;5.98;nan;101115.03;2090465;28;20217;-74
2023/10/17 03:19:57;;;;;;;1.63;0.93;;;;;;;5.97;nan;101111.56;2098949;28;20323;-75
2023/10/17 03:21:08;;;;;;;1.58;1.02;;;;;;;5.95;nan;101112.81;2088431;28;20233;-75
2023/10/17 03:23:28;;;;;;;2.75;0.82;;;;;;;5.92;nan;101114.06;2082998;28;21089;-74
2023/10/17 03:24:41;;;;;;;5.13;1.23;;;;;;;5.89;nan;101119.88;2090040;28;20241;-74
2023/10/17 03:25:46;;;;;;;4.22;0.95;;;;;;;5.88;nan;101115.59;2075809;28;21070;-74
2023/10/17 03:27:07;;;;;;;2.90;1.33;;;;;;;5.86;nan;101114.19;2066509;28;20434;-73
2023/10/17 03:28:08;;;;;;;2.05;1.00;;;;;;;5.84;nan;101113.63;2076693;28;20348;-74
2023/10/17 03:29:14;;;;;;;3.55;1.20;;;;;;;5.82;nan;101114.66;2073678;28;20280;-74
2023/10/17 03:30:20;;;;;;;6.05;1.20;;;;;;;5.80;nan;101111.44;2083792;28;20233;-74
2023/10/17 03:31:21;;;;;;;2.00;0.93;;;;;;;5.84;nan;101118.97;2081684;28;20276;-73
2023/10/17 03:32:27;;;;;;;2.97;1.30;;;;;;;5.78;nan;101108.16;2081402;28;20309;-75
2023/10/17 03:33:32;;;;;;;3.15;1.10;;;;;;;5.84;nan;101111.78;2082923;28;20253;-74
2023/10/17 03:34:37;;;;;;;2.05;1.13;;;;;;;5.84;nan;101114.44;2074383;28;20273;-74
2023/10/17 03:35:49;;;;;;;3.28;1.30;;;;;;;5.85;nan;101116.06;2064854;28;20243;-74
2023/10/17 03:36:52;;;;;;;2.75;1.10;;;;;;;5.87;nan;101110.50;2085688;28;20333;-74
2023/10/17 03:37:55;;;;;;;1.70;0.98;;;;;;;5.87;nan;101105.97;2096341;28;20949;-74
2023/10/17 03:39:15;;;;;;;3.95;1.10;;;;;;;5.90;nan;101115.38;2098322;28;20201;-74
2023/10/17 03:40:29;;;;;;;4.30;1.25;;;;;;;5.90;nan;101118.03;2092363;28;20988;-74
2023/10/17 03:41:31;;;;;;;5.00;1.42;;;;;;;5.87;nan;101121.16;2091053;28;20028;-74
2023/10/17 03:43:52;;;;;;;2.22;1.15;;;;;;;5.87;nan;101121.97;2097516;28;20196;-74
2023/10/17 03:44:54;;;;;;;3.83;1.05;;;;;;;5.87;nan;101123.84;2090581;28;20965;-74
2023/10/17 03:46:03;;;;;;;2.25;1.13;;;;;;;5.82;nan;101129.84;2080888;28;20209;-75
2023/10/17 03:47:04;;;;;;;4.38;1.08;;;;;;;5.78;nan;101123.38;2066773;28;20956;-75
2023/10/17 03:48:13;;;;;;;1.60;1.00;;;;;;;5.76;nan;101118.25;2064837;28;20213;-75
2023/10/17 03:49:18;;;;;;;2.38;1.13;;;;;;;5.76;nan;101128.94;2083272;28;20233;-74
2023/10/17 03:51:46;;;;;;;3.92;1.10;;;;;;;5.79;nan;101125.78;2092380;28;20192;-74
2023/10/17 03:52:48;;;;;;;1.98;1.05;;;;;;;5.81;nan;101125.56;2081635;28;20245;-74
2023/10/17 03:53:49;;;;;;;5.18;1.15;;;;;;;5.84;nan;101132.31;2073019;28;20333;-74
2023/10/17 03:54:51;;;;;;;3.03;1.40;;;;;;;5.84;nan;101121.63;2089115;28;20992;-75
2023/10/17 03:55:54;;;;;;;2.50;1.17;;;;;;;5.85;nan;101124.06;2088931;28;20273;-74
2023/10/17 03:57:04;;;;;;;5.22;1.15;;;;;;;5.87;nan;101131.84;2082211;28;20232;-74
2023/10/17 03:58:18;;;;;;;;;;;;;;;5.87;nan;101126.50;2075034;28;20242;-74
2023/10/17 03:59:37;;;;;;;2.75;0.93;;;;;;;5.86;nan;101127.53;2087454;28;20103;-74
2023/10/17 04:00:45;;;;;;;1.85;0.90;;;;;;;5.86;nan;101130.19;2089942;28;20281;-75
2023/10/17 04:01:49;;;;;;;3.72;1.17;;;;;;;5.86;nan;101125.66;2066899;28;20074;-74
2023/10/17 04:02:50;;;;;;;10.13;1.15;;;;;;;5.87;nan;101127.31;2074289;28;20306;-75
2023/10/17 04:03:55;;;;;;;4.15;0.93;;;;;;;5.87;nan;101129.97;2082672;28;20217;-74
2023/10/17 04:04:56;;;;;;;3.67;0.90;;;;;;;5.88;nan;101136.13;2073485;28;20257;-74
2023/10/17 04:07:06;;;;;;;3.38;1.00;;;;;;;5.85;nan;101133.94;2075525;28;20199;-74
2023/10/17 04:08:09;;;;;;;2.03;0.90;;;;;;;5.84;nan;101134.97;2090409;28;20189;-74
2023/10/17 04:09:27;;;;;;;3.70;1.13;;;;;;;5.81;nan;101133.59;2090349;28;20213;-74
2023/10/17 04:10:40;;;;;;;1.95;0.95;;;;;;;5.77;nan;101127.91;2084372;28;20374;-74
2023/10/17 04:11:43;;;;;;;4.90;1.10;;;;;;;5.75;nan;101129.16;2085411;28;20197;-74
2023/10/17 04:14:09;;;;;;;5.35;1.10;;;;;;;5.73;nan;101123.25;2087647;28;20213;-74
2023/10/17 04:15:15;;;;;;;1.60;0.93;;;;;;;5.70;nan;101127.19;2099019;28;20200;-74
2023/10/17 04:16:33;;;;;;;4.40;1.30;;;;;;;5.68;nan;101129.28;2098715;28;20267;-74
2023/10/17 04:17:38;;;;;;;1.92;0.98;;;;;;;5.72;nan;101137.63;2098493;28;20232;-75
2023/10/17 04:18:40;;;;;;;5.03;1.25;;;;;;;5.72;nan;101133.09;2090050;28;20304;-74
2023/10/17 04:19:42;;;;;;;2.97;1.10;;;;;;;5.71;nan;101123.50;2073608;28;20333;-74
2023/10/17 04:20:46;;;;;;;3.55;1.23;;;;;;;5.74;nan;101133.69;2069733;28;20230;-74
2023/10/17 04:22:15;;;;;;;9.75;1.10;;;;;;;5.75;nan;101135.31;2066934;28;20286;-73
2023/10/17 04:23:21;;;;;;;3.03;1.05;;;;;;;5.75;nan;101135.31;2076971;28;20304;-73
2023/10/17 04:24:35;;;;;;;4.72;1.40;;;;;;;5.78;nan;101131.38;2059661;28;20258;-75
2023/10/17 04:25:38;;;;;;;1.35;0.95;;;;;;;5.79;nan;101136.47;2068893;28;20211;-75
2023/10/17 04:26:44;;;;;;;3.10;0.90;;;;;;;5.79;nan;101136.47;2082214;28;20960;-74
2023/10/17 04:27:52;;;;;;;1.77;0.82;;;;;;;5.77;nan;101132.44;2097898;28;20242;-74
2023/10/17 04:29:13;;;;;;;3.20;1.10;;;;;;;5.75;nan;101142.50;2089960;28;20381;-75
2023/10/17 04:30:22;;;;;;;2.00;0.90;;;;;;;5.73;nan;101142.72;2084688;28;21064;-75
2023/10/17 04:31:28;;;;;;;5.25;1.30;;;;;;;5.72;nan;101146.44;2082677;28;21041;-74
2023/10/17 04:32:38;;;;;;;5.05;1.13;;;;;;;5.69;nan;101133.56;2090170;28;20155;-74
2023/10/17 04:33:42;;;;;;;3.67;1.10;;;;;;;5.69;nan;101144.25;2092620;28;20216;-75
2023/10/17 04:34:48;;;;;;;4.68;1.00;;;;;;;5.69;nan;101146.91;2091784;28;20213;-74
2023/10/17 04:35:55;;;;;;;3.92;1.00;;;;;;;5.69;nan;101146.09;2082581;28;20254;-75
2023/10/17 04:36:57;;;;;;;4.50;1.73;;;;;;;5.69;nan;101140.78;2068200;28;20425;-75
2023/10/17 04:40:42;;;;;;;3.20;1.20;;;;;;;5.67;nan;101143.66;2083825;28;20238;-76
2023/10/17 04:42:04;;;;;;;2.55;0.93;;;;;;;5.67;nan;101149.00;2077319;28;20211;-76
2023/10/17 04:44:36;;;;;;;4.85;1.25;;;;;;;5.67;nan;101143.66;2094033;28;20201;-81
2023/10/17 04:45:44;;;;;;;2.15;0.80;;;;;;;5.68;nan;101145.28;2084419;28;20233;-80
2023/10/17 04:48:10;;;;;;;5.82;1.33;;;;;;;5.72;nan;101151.78;2106913;28;20234;-78
2023/10/17 04:49:18;;;;;;;6.65;1.05;;;;;;;5.74;nan;101143.56;2091158;28;20237;-77
2023/10/17 04:50:22;;;;;;;4.45;1.10;;;;;;;5.75;nan;101150.53;2092062;28;20339;-77
2023/10/17 04:51:31;;;;;;;3.83;1.75;;;;;;;5.74;nan;101136.38;2090112;28;20968;-78
2023/10/17 04:52:41;;;;;;;2.47;1.10;;;;;;;5.77;nan;101153.78;2092512;28;21066;-81
2023/10/17 04:53:51;;;;;;;3.03;1.10;;;;;;;5.74;nan;101149.72;2083119;28;20321;-81
2023/10/17 04:55:01;;;;;;;2.10;0.80;;;;;;;5.74;nan;101149.72;2077617;28;20214;-84
2023/10/17 04:56:12;;;;;;;2.65;1.17;;;;;;;5.74;nan;101139.03;2076784;28;21199;-76
2023/10/17 04:57:18;;;;;;;4.63;1.08;;;;;;;5.74;nan;101144.38;2093676;28;20049;-78
2023/10/17 04:58:39;;;;;;;2.08;1.20;;;;;;;5.71;nan;101144.84;2091488;28;20193;-81
2023/10/17 05:04:02;;;;;;;2.40;1.20;;;;;;;5.71;nan;101142.16;2101685;28;20990;-81
2023/10/17 05:06:10;;;;;;;4.20;1.08;;;;;;;5.76;nan;101141.47;2082975;28;20310;-81
2023/10/17 05:07:21;;;;;;;5.55;1.80;;;;;;;5.77;nan;101143.91;2091800;28;21500;-81
2023/10/17 05:08:32;;;;;;;;;;;;;;;5.77;nan;101141.25;2082281;28;20253;-81
2023/10/17 06:16:51;;;;;;;7.30;2.42;;;;;;;7.58;nan;101190.75;2082448;28;20320;-83
2023/10/17 06:17:53;;;;;;;7.03;2.10;;;;;;;7.61;nan;101195.63;2076858;28;21009;-82
2023/10/17 06:18:57;;;;;;;3.90;1.90;;;;;;;7.62;nan;101199.09;2090947;28;20033;-83
2023/10/17 06:19:59;;;;;;;4.70;1.77;;;;;;;7.55;nan;101198.47;2090259;28;20984;-82
2023/10/17 06:24:06;;;;;;;6.03;1.77;;;;;;;7.49;nan;101205.59;2099080;28;20794;-83
2023/10/17 06:24:46;;;;;;;2.63;1.67;;;;;;;7.86;nan;101207.78;2094774;28;21205;-83
2023/10/17 06:26:59;;;;;;;5.90;1.60;;;;;;;7.91;nan;101213.22;2091133;28;20040;-82
2023/10/17 06:28:25;;;;;;;6.75;1.70;;;;;;;8.27;nan;101203.03;2099398;28;20247;-83
2023/10/17 06:30:45;;;;;;;5.43;1.40;;;;;;;8.99;nan;101202.88;2090155;28;20086;-82
2023/10/17 06:34:14;;;;;;;2.45;1.45;;;;;;;9.88;nan;101212.25;2085346;28;20887;-83
2023/10/17 06:35:23;;;;;;;3.22;1.60;;;;;;;9.78;nan;101206.81;2082414;28;20128;-83
2023/10/17 06:36:25;;;;;;;3.30;1.52;;;;;;;9.71;nan;101211.59;2084575;28;20038;-82
2023/10/17 06:37:32;;;;;;;6.47;1.90;;;;;;;9.69;nan;101197.63;2089303;28;20041;-82
2023/10/17 06:38:43;;;;;;;4.30;1.23;;;;;;;10.17;nan;101215.41;2091654;28;20041;-82
2023/10/17 06:39:47;;;;;;;3.33;1.30;;;;;;;10.60;nan;101210.03;2092284;28;20103;-83
2023/10/17 06:40:53;;;;;;;6.20;1.40;;;;;;;10.93;nan;101208.78;2090205;28;20152;-82
2023/10/17 06:42:01;;;;;;;4.10;1.60;;;;;;;11.24;nan;101206.97;2098827;28;20021;-83
2023/10/17 06:43:13;;;;;;;3.03;1.40;;;;;;;11.56;nan;101219.41;2099288;28;20033;-83
2023/10/17 06:44:23;;;;;;;5.88;1.58;;;;;;;11.83;nan;101211.84;2098649;28;20136;-83
2023/10/17 06:45:32;;;;;;;5.93;1.45;;;;;;;12.06;nan;101207.81;2091803;28;21032;-82
2023/10/17 06:48:08;;;;;;;4.70;1.65;;;;;;;12.56;nan;101218.75;2073304;28;20040;-82
2023/10/17 06:49:28;;;;;;;4.22;2.08;;;;;;;12.80;nan;101210.84;2084013;28;20064;-82
2023/10/17 06:52:09;;;;;;;5.53;1.77;;;;;;;13.55;nan;101221.44;2097215;28;20025;-82
2023/10/17 06:53:11;;;;;;;5.43;1.60;;;;;;;13.93;nan;101216.25;2093491;28;20037;-83
2023/10/17 06:54:24;;;;;;;3.55;1.77;;;;;;;14.26;nan;101219.19;2090516;28;20030;-83
2023/10/17 06:55:29;;;;;;;4.82;1.50;;;;;;;14.48;nan;101211.38;2084033;28;20030;-83
2023/10/17 06:56:32;;;;;;;3.63;1.35;;;;;;;14.69;nan;101214.66;2083170;28;20141;-83
2023/10/17 06:57:35;;;;;;;6.93;1.60;;;;;;;14.96;nan;101211.31;2099311;28;20037;-83
2023/10/17 06:58:38;;;;;;;3.72;1.58;;;;;;;15.15;nan;101216.75;2090075;28;20083;-83